Barfleur — FNIE — position and weather

sailwx.info

Track history (hours):
 
Tides and Currents Weather Stations Pressure Air Temp Water Temp Dewpoint Dewpoint Depression Visibility Wind Speed Wind Dir Waves Ship Positions

Barfleur

Operator: Brittany Ferries

Last reported at 2018-Jun-20 01:52 UTC. Time now 2018-Jun-20 02:09 UTC.
Position N 49°55' W 001°37'.

Length 158 m; draft 5.2 m.

Type: Ship. MMSI: 227289000.

Date/timePositionNaut miles runAvg speedWind from/ knotsBaromVisibWave heightAir tempDewpointWater temp
2018-Jun-20 01:52N 49°55' W 001°37'613.2
2018-Jun-20 01:25N 49°50' W 001°33'4 6.7
2018-Jun-20 00:48N 49°46' W 001°31'60 4.0
2018-Jun-19 09:56N 50°42' W 001°59'1310.1
2018-Jun-19 08:36N 50°30' W 001°52'218.2
2018-Jun-19 08:31N 50°32' W 001°53'816.4
2018-Jun-19 08:00N 50°40' W 001°56'4 5.7
2018-Jun-19 07:21N 50°42' W 001°59'0 0.0
2018-Jun-19 06:57N 50°42' W 001°59'0 0.0
2018-Jun-19 06:21N 50°42' W 001°59'0 0.0
2018-Jun-19 05:51N 50°42' W 001°59'0 0.0
2018-Jun-19 05:28N 50°42' W 001°59'0 0.0
2018-Jun-19 04:57N 50°42' W 001°59'0 0.0
2018-Jun-19 04:28N 50°42' W 001°59'0 0.0
2018-Jun-19 03:58N 50°42' W 001°59'0 0.0
2018-Jun-19 03:27N 50°42' W 001°59'0 0.0
2018-Jun-19 02:57N 50°42' W 001°59'0 0.0
2018-Jun-19 02:27N 50°42' W 001°59'0 0.0
2018-Jun-19 01:57N 50°42' W 001°59'0 0.0
2018-Jun-19 01:28N 50°42' W 001°59'0 0.0
2018-Jun-19 00:57N 50°42' W 001°59'0 0.0
2018-Jun-19 00:28N 50°42' W 001°59'0 0.0
2018-Jun-18 23:57N 50°42' W 001°59'0 0.0
2018-Jun-18 23:29N 50°42' W 001°59'0 0.0
2018-Jun-18 22:59N 50°42' W 001°59'0 0.0
2018-Jun-18 22:28N 50°42' W 001°59'0 0.0
2018-Jun-18 21:57N 50°42' W 001°59'0 0.0
2018-Jun-18 21:30N 50°42' W 001°59'0 0.0
2018-Jun-18 20:56N 50°42' W 001°59'1 1.7
2018-Jun-18 20:30N 50°42' W 001°58'5 9.6
2018-Jun-18 20:01N 50°38' W 001°54'816.5
2018-Jun-18 19:30N 50°30' W 001°51'5018.2
2018-Jun-18 16:45N 49°41' W 001°40'1 0.1
2018-Jun-18 11:21N 49°40' W 001°39'3817.7
2018-Jun-18 09:12N 50°18' W 001°47'418.7
2018-Jun-18 08:58N 50°22' W 001°49'918.4
2018-Jun-18 08:30N 50°30' W 001°51'917.7
2018-Jun-18 08:00N 50°39' W 001°55'4 8.4
2018-Jun-18 07:30N 50°42' W 001°59'0 0.8
2018-Jun-18 07:00N 50°42' W 001°59'0 0.0
2018-Jun-18 06:17N 50°42' W 001°59'0 0.0
2018-Jun-18 05:59N 50°42' W 001°59'0 0.0
2018-Jun-18 05:29N 50°42' W 001°59'0 0.0
2018-Jun-18 04:59N 50°42' W 001°59'0 0.0
2018-Jun-18 04:29N 50°42' W 001°59'0 0.0
2018-Jun-18 03:59N 50°42' W 001°59'0 0.0
2018-Jun-18 03:29N 50°42' W 001°59'0 0.0
2018-Jun-18 02:59N 50°42' W 001°59'0 0.0
2018-Jun-18 02:23N 50°42' W 001°59'0 0.0
2018-Jun-18 01:59N 50°42' W 001°59'0 0.0
2018-Jun-18 01:29N 50°42' W 001°59'0 0.0
2018-Jun-18 00:59N 50°42' W 001°59'0 0.0
2018-Jun-18 00:29N 50°42' W 001°59'0 0.0
2018-Jun-17 23:59N 50°42' W 001°59'0 0.0
2018-Jun-17 23:23N 50°42' W 001°59'0 0.0
2018-Jun-17 22:53N 50°42' W 001°59'0 0.0
2018-Jun-17 22:23N 50°42' W 001°59'0 0.0
2018-Jun-17 21:59N 50°42' W 001°59'0 0.0
2018-Jun-17 21:29N 50°42' W 001°59'0 0.0
2018-Jun-17 20:50N 50°42' W 001°59'0 0.9
2018-Jun-17 20:30N 50°42' W 001°59'510.7
2018-Jun-17 20:00N 50°38' W 001°54'815.7
2018-Jun-17 19:30N 50°31' W 001°51'4018.7
2018-Jun-17 17:21N 49°51' W 001°42'1017.5
2018-Jun-17 16:45N 49°41' W 001°39'0 0.0
2018-Jun-17 11:13N 49°40' W 001°39'4817.6
2018-Jun-17 08:28N 50°28' W 001°51'817.8
2018-Jun-17 08:00N 50°36' W 001°53'611.4
2018-Jun-17 07:30N 50°42' W 001°57'2 3.4
2018-Jun-17 07:00N 50°42' W 001°59'0 0.0
2018-Jun-17 06:30N 50°42' W 001°59'0 0.0
2018-Jun-17 05:59N 50°42' W 001°59'0 0.0
2018-Jun-17 05:30N 50°42' W 001°59'0 0.0
2018-Jun-17 04:59N 50°42' W 001°59'0 0.0
2018-Jun-17 04:23N 50°42' W 001°59'0 0.0
2018-Jun-17 03:59N 50°42' W 001°59'0 0.0
2018-Jun-17 03:29N 50°42' W 001°59'0 0.0
2018-Jun-17 02:59N 50°42' W 001°59'0 0.0
2018-Jun-17 02:30N 50°42' W 001°59'0 0.0
2018-Jun-17 01:59N 50°42' W 001°59'0 0.0
2018-Jun-17 01:29N 50°42' W 001°59'0 0.0
2018-Jun-17 01:00N 50°42' W 001°59'0 0.0
2018-Jun-17 00:29N 50°42' W 001°59'0 0.0
2018-Jun-16 23:59N 50°42' W 001°59'0 0.0
2018-Jun-16 23:29N 50°42' W 001°59'0 0.0
2018-Jun-16 22:59N 50°42' W 001°59'0 0.0
2018-Jun-16 22:30N 50°42' W 001°59'0 0.0
2018-Jun-16 22:00N 50°42' W 001°59'0 0.0
2018-Jun-16 21:29N 50°42' W 001°59'0 0.0
2018-Jun-16 21:00N 50°42' W 001°59'0 0.4
2018-Jun-16 20:30N 50°42' W 001°59'5 9.4
2018-Jun-16 20:00N 50°39' W 001°55'1017.6
2018-Jun-16 19:26N 50°29' W 001°50'4918.5
2018-Jun-16 16:49N 49°41' W 001°40'49 5.9
2018-Jun-16 08:30N 50°29' W 001°51'917.4
2018-Jun-16 08:00N 50°38' W 001°53'510.0
2018-Jun-16 07:30N 50°42' W 001°58'1 2.2
2018-Jun-16 07:00N 50°42' W 001°59'0 0.0
2018-Jun-16 06:30N 50°42' W 001°59'0 0.0
2018-Jun-16 05:57N 50°42' W 001°59'0 0.0
2018-Jun-16 05:27N 50°42' W 001°59'0 0.0
2018-Jun-16 04:57N 50°42' W 001°59'0 0.0
2018-Jun-16 04:27N 50°42' W 001°59'0 0.0
2018-Jun-16 03:57N 50°42' W 001°59'0 0.0
2018-Jun-16 03:26N 50°42' W 001°59'0 0.0
2018-Jun-16 02:57N 50°42' W 001°59'0 0.0
2018-Jun-16 02:27N 50°42' W 001°59'0 0.0
2018-Jun-16 01:57N 50°42' W 001°59'0 0.0
2018-Jun-16 01:27N 50°42' W 001°59'0 0.0
2018-Jun-16 00:51N 50°42' W 001°59'0 0.0
2018-Jun-16 00:27N 50°42' W 001°59'0 0.0
2018-Jun-15 23:57N 50°42' W 001°59'0 0.0
2018-Jun-15 23:27N 50°42' W 001°59'0 0.0
2018-Jun-15 22:57N 50°42' W 001°59'0 0.0
2018-Jun-15 22:27N 50°42' W 001°59'0 0.0
2018-Jun-15 21:57N 50°42' W 001°59'0 0.0
2018-Jun-15 21:30N 50°42' W 001°59'0 0.0
2018-Jun-15 20:48N 50°42' W 001°59'0 0.2
2018-Jun-15 20:31N 50°42' W 001°60'5 9.0
2018-Jun-15 20:00N 50°39' W 001°55'917.0
2018-Jun-15 19:30N 50°31' W 001°51'918.4
2018-Jun-15 19:00N 50°22' W 001°49'918.5
2018-Jun-15 18:30N 50°13' W 001°46'918.7
2018-Jun-15 18:00N 50°03' W 001°44'1018.6
2018-Jun-15 17:27N 49°53' W 001°42'918.5
2018-Jun-15 16:57N 49°44' W 001°40'5 2.6
2018-Jun-15 15:01N 49°40' W 001°37'2 5.7
2018-Jun-15 14:44N 49°40' W 001°39'3 8.9
2018-Jun-15 14:27N 49°42' W 001°41'1 3.1
2018-Jun-15 14:00N 49°43' W 001°39'3 1.3
2018-Jun-15 11:25N 49°40' W 001°37'513.1
2018-Jun-15 11:00N 49°45' W 001°40'918.9
2018-Jun-15 10:30N 49°54' W 001°42'1318.0
2018-Jun-15 09:48N 50°07' W 001°43'2318.6
2018-Jun-15 08:34N 50°29' W 001°50'118.5
2018-Jun-15 08:30N 50°30' W 001°50'917.5
2018-Jun-15 08:00N 50°39' W 001°55'4 8.8
2018-Jun-15 07:30N 50°42' W 001°58'1 1.1
2018-Jun-15 06:53N 50°42' W 001°59'0 0.0
2018-Jun-15 06:23N 50°42' W 001°59'0 0.0
2018-Jun-15 05:59N 50°42' W 001°59'0 0.0
2018-Jun-15 05:29N 50°42' W 001°59'0 0.0
2018-Jun-15 04:59N 50°42' W 001°59'0 0.0
2018-Jun-15 04:29N 50°42' W 001°59'0 0.0
2018-Jun-15 03:59N 50°42' W 001°59'0 0.0
2018-Jun-15 03:29N 50°42' W 001°59'0 0.0
2018-Jun-15 02:59N 50°42' W 001°59'0 0.0
2018-Jun-15 02:29N 50°42' W 001°59'0 0.0
2018-Jun-15 01:59N 50°42' W 001°59'0 0.0
2018-Jun-15 01:29N 50°42' W 001°59'0 0.0
2018-Jun-15 00:59N 50°42' W 001°59'0 0.0
2018-Jun-15 00:29N 50°42' W 001°59'0 0.0
2018-Jun-14 23:59N 50°42' W 001°59'0 0.0
2018-Jun-14 23:29N 50°42' W 001°59'0 0.0
2018-Jun-14 22:59N 50°42' W 001°59'0 0.0
2018-Jun-14 22:23N 50°42' W 001°59'0 0.0
2018-Jun-14 21:59N 50°42' W 001°59'0 0.0
2018-Jun-14 21:19N 50°42' W 001°59'0 0.1
2018-Jun-14 21:00N 50°42' W 001°60'4 8.0
2018-Jun-14 20:31N 50°39' W 001°55'814.8
2018-Jun-14 20:00N 50°32' W 001°51'816.8
2018-Jun-14 19:30N 50°25' W 001°46'917.3
2018-Jun-14 19:00N 50°16' W 001°43'918.3
2018-Jun-14 18:30N 50°07' W 001°43'918.5
2018-Jun-14 18:00N 49°58' W 001°43'19 4.7
2018-Jun-14 13:50N 49°39' W 001°37'0 0.0
2018-Jun-14 13:30N 49°39' W 001°37'0 0.0
2018-Jun-14 13:01N 49°39' W 001°37'0 0.0
2018-Jun-14 12:31N 49°39' W 001°37'0 0.0
2018-Jun-14 12:01N 49°39' W 001°37'4 7.5
2018-Jun-14 11:30N 49°42' W 001°41'816.0
2018-Jun-14 11:00N 49°50' W 001°43'918.0
2018-Jun-14 10:30N 49°59' W 001°43'918.2
2018-Jun-14 10:00N 50°07' W 001°46'2117.6
2018-Jun-14 08:51N 50°28' W 001°51'617.3
2018-Jun-14 08:30N 50°33' W 001°53'713.7
2018-Jun-14 08:00N 50°40' W 001°56'3 6.4
2018-Jun-14 07:29N 50°42' W 001°59'0 0.0
2018-Jun-14 06:59N 50°42' W 001°59'0 0.0
2018-Jun-14 06:29N 50°42' W 001°59'0 0.0
2018-Jun-14 06:00N 50°42' W 001°59'1 1.6
2018-Jun-14 05:30N 50°42' W 001°58'5 9.6
2018-Jun-14 05:00N 50°38' W 001°54'714.7
2018-Jun-14 04:31N 50°31' W 001°51'714.9
2018-Jun-14 04:01N 50°24' W 001°49'714.8
2018-Jun-14 03:30N 50°16' W 001°49'714.6
2018-Jun-14 03:00N 50°09' W 001°48'714.3
2018-Jun-14 02:30N 50°02' W 001°47'714.4
2018-Jun-14 02:00N 49°55' W 001°46'714.6
2018-Jun-14 01:31N 49°48' W 001°45'3 5.7
2018-Jun-14 01:00N 49°45' W 001°43'2 3.5
2018-Jun-14 00:30N 49°44' W 001°40'1 2.7
2018-Jun-14 00:00N 49°44' W 001°38'1 1.8
2018-Jun-13 23:30N 49°44' W 001°37'1 1.3
2018-Jun-13 23:00N 49°44' W 001°36'0 0.5
2018-Jun-13 22:30N 49°44' W 001°35'0 0.3
2018-Jun-13 22:00N 49°44' W 001°36'0 0.4
2018-Jun-13 21:30N 49°44' W 001°36'2 4.2
2018-Jun-13 21:00N 49°42' W 001°35'3 6.1
2018-Jun-13 20:30N 49°39' W 001°37'0 0.0
2018-Jun-13 20:00N 49°39' W 001°37'0 0.0
2018-Jun-13 19:30N 49°39' W 001°37'0 0.0
2018-Jun-13 19:00N 49°39' W 001°37'0 0.0
2018-Jun-13 18:30N 49°39' W 001°37'0 0.0
2018-Jun-13 17:34N 49°39' W 001°37'0 0.0
2018-Jun-13 17:29N 49°39' W 001°37'0 0.0
2018-Jun-13 17:00N 49°39' W 001°37'0 0.0
2018-Jun-13 16:30N 49°39' W 001°37'0 0.0
2018-Jun-13 16:00N 49°39' W 001°37'0 0.0
2018-Jun-13 15:31N 49°39' W 001°37'0 0.2
2018-Jun-13 15:00N 49°39' W 001°37'4 7.9
2018-Jun-13 14:30N 49°42' W 001°39'1 2.5
2018-Jun-13 14:00N 49°43' W 001°38'3 6.8
2018-Jun-13 13:30N 49°40' W 001°38'1 1.3
2018-Jun-13 12:20N 49°39' W 001°37'0 0.0
2018-Jun-13 12:00N 49°39' W 001°37'1 2.0
2018-Jun-13 11:30N 49°40' W 001°37'713.6
2018-Jun-13 11:01N 49°46' W 001°42'918.6
2018-Jun-13 10:30N 49°55' W 001°45'918.8
2018-Jun-13 10:00N 50°04' W 001°46'918.9
2018-Jun-13 09:31N 50°14' W 001°48'1018.9
2018-Jun-13 09:00N 50°23' W 001°50'918.5
2018-Jun-13 08:30N 50°32' W 001°52'815.8
2018-Jun-13 08:00N 50°40' W 001°56'4 7.2
2018-Jun-13 07:30N 50°42' W 001°59'0 0.0
2018-Jun-13 07:00N 50°42' W 001°59'0 0.0
2018-Jun-13 06:30N 50°42' W 001°59'0 0.0
2018-Jun-13 05:59N 50°42' W 001°59'1 2.7
2018-Jun-13 05:30N 50°42' W 001°58'5 9.8
2018-Jun-13 05:00N 50°38' W 001°54'815.4
2018-Jun-13 04:30N 50°30' W 001°50'2014.6
2018-Jun-13 03:09N 50°11' W 001°45'214.4
2018-Jun-13 03:00N 50°09' W 001°44'714.2
2018-Jun-13 02:30N 50°02' W 001°43'714.3
2018-Jun-13 02:01N 49°55' W 001°42'714.4
2018-Jun-13 01:30N 49°48' W 001°40'4 7.9
2018-Jun-13 01:00N 49°44' W 001°40'3 6.4
2018-Jun-13 00:30N 49°44' W 001°45'1 1.3
2018-Jun-13 00:00N 49°43' W 001°46'2 3.5
2018-Jun-12 23:30N 49°43' W 001°43'1 3.0
2018-Jun-12 23:00N 49°43' W 001°41'1 2.6
2018-Jun-12 22:30N 49°43' W 001°39'1 2.0
2018-Jun-12 22:00N 49°43' W 001°37'1 1.2
2018-Jun-12 21:30N 49°43' W 001°37'1 1.0
2018-Jun-12 21:00N 49°44' W 001°36'4 7.1
2018-Jun-12 20:30N 49°40' W 001°36'1 2.7
2018-Jun-12 19:59N 49°39' W 001°37'0 0.0
2018-Jun-12 19:29N 49°39' W 001°37'0 0.0
2018-Jun-12 18:59N 49°39' W 001°37'0 0.0
2018-Jun-12 18:29N 49°39' W 001°37'0 0.0
2018-Jun-12 17:59N 49°39' W 001°37'0 0.0
2018-Jun-12 17:29N 49°39' W 001°37'0 0.0
2018-Jun-12 16:59N 49°39' W 001°37'0 0.0
2018-Jun-12 16:29N 49°39' W 001°37'0 0.0
2018-Jun-12 15:59N 49°39' W 001°37'0 0.0
2018-Jun-12 15:29N 49°39' W 001°37'0 0.0
2018-Jun-12 14:59N 49°39' W 001°37'0 0.0
2018-Jun-12 14:29N 49°39' W 001°37'0 0.0
2018-Jun-12 13:59N 49°39' W 001°37'0 0.0
2018-Jun-12 13:29N 49°39' W 001°37'0 0.0
2018-Jun-12 12:59N 49°39' W 001°37'0 0.0
2018-Jun-12 12:29N 49°39' W 001°37'0 0.0
2018-Jun-12 12:00N 49°39' W 001°37'2 3.8
2018-Jun-12 11:31N 49°40' W 001°39'714.3
2018-Jun-12 11:00N 49°47' W 001°43'918.3
2018-Jun-12 10:31N 49°56' W 001°44'918.7
2018-Jun-12 10:00N 50°05' W 001°46'918.8
2018-Jun-12 09:30N 50°15' W 001°48'918.9
2018-Jun-12 09:00N 50°24' W 001°50'918.7
2018-Jun-12 08:30N 50°33' W 001°53'815.3
2018-Jun-12 07:59N 50°41' W 001°56'3 4.7
2018-Jun-12 07:25N 50°42' W 001°59'0 0.0
2018-Jun-12 06:58N 50°42' W 001°59'0 0.0
2018-Jun-12 06:28N 50°42' W 001°59'0 0.0
2018-Jun-12 05:55N 50°42' W 001°59'0 0.0
2018-Jun-12 05:25N 50°42' W 001°59'0 0.0
2018-Jun-12 04:55N 50°42' W 001°59'0 0.0
2018-Jun-12 04:25N 50°42' W 001°59'0 0.0
2018-Jun-12 03:58N 50°42' W 001°59'0 0.0
2018-Jun-12 03:28N 50°42' W 001°59'0 0.0
2018-Jun-12 02:55N 50°42' W 001°59'0 0.0
2018-Jun-12 02:25N 50°42' W 001°59'0 0.0
2018-Jun-12 01:55N 50°42' W 001°59'0 0.0
2018-Jun-12 01:25N 50°42' W 001°59'0 0.0
2018-Jun-12 00:58N 50°42' W 001°59'0 0.0
2018-Jun-12 00:28N 50°42' W 001°59'0 0.0
2018-Jun-11 23:55N 50°42' W 001°59'0 0.0
2018-Jun-11 23:25N 50°42' W 001°59'0 0.0
2018-Jun-11 22:55N 50°42' W 001°59'0 0.0
2018-Jun-11 22:25N 50°42' W 001°59'0 0.0
2018-Jun-11 21:58N 50°42' W 001°59'0 0.0
2018-Jun-11 21:28N 50°42' W 001°59'0 0.0
2018-Jun-11 20:58N 50°42' W 001°59'0 0.1
2018-Jun-11 20:30N 50°42' W 001°59'4 8.6
2018-Jun-11 20:00N 50°39' W 001°55'816.4
2018-Jun-11 19:30N 50°31' W 001°52'1318.5
2018-Jun-11 18:48N 50°18' W 001°51'518.1
2018-Jun-11 18:30N 50°13' W 001°50'917.8
2018-Jun-11 18:00N 50°04' W 001°46'918.0
2018-Jun-11 17:30N 49°55' W 001°43'917.7
2018-Jun-11 17:01N 49°47' W 001°41'714.2
2018-Jun-11 16:30N 49°40' W 001°37'1 2.1
2018-Jun-11 16:00N 49°39' W 001°37'0 0.0
2018-Jun-11 15:30N 49°39' W 001°37'0 0.0
2018-Jun-11 15:00N 49°39' W 001°37'0 0.0
2018-Jun-11 14:30N 49°39' W 001°37'0 0.0
2018-Jun-11 14:00N 49°39' W 001°37'0 0.0
2018-Jun-11 13:30N 49°39' W 001°37'0 0.0
2018-Jun-11 13:00N 49°39' W 001°37'0 0.0
2018-Jun-11 12:30N 49°39' W 001°37'0 0.0
2018-Jun-11 12:00N 49°39' W 001°37'0 0.4
2018-Jun-11 11:31N 49°39' W 001°37'510.7
2018-Jun-11 11:00N 49°44' W 001°41'917.1
2018-Jun-11 10:30N 49°52' W 001°43'917.6
2018-Jun-11 10:00N 50°01' W 001°46'918.9
2018-Jun-11 09:31N 50°10' W 001°47'1019.0
2018-Jun-11 09:00N 50°19' W 001°49'919.0
2018-Jun-11 08:31N 50°29' W 001°51'918.7
2018-Jun-11 08:00N 50°38' W 001°54'510.4
2018-Jun-11 07:30N 50°42' W 001°59'1 1.0
2018-Jun-11 06:59N 50°42' W 001°59'0 0.0
2018-Jun-11 06:26N 50°42' W 001°59'0 0.0
2018-Jun-11 05:59N 50°42' W 001°59'0 0.0
2018-Jun-11 05:29N 50°42' W 001°59'0 0.0
2018-Jun-11 04:59N 50°42' W 001°59'0 0.0
2018-Jun-11 04:29N 50°42' W 001°59'0 0.0
2018-Jun-11 03:59N 50°42' W 001°59'0 0.0
2018-Jun-11 03:29N 50°42' W 001°59'0 0.0
2018-Jun-11 02:53N 50°42' W 001°59'0 0.0
2018-Jun-11 02:29N 50°42' W 001°59'0 0.0
2018-Jun-11 01:59N 50°42' W 001°59'0 0.0
2018-Jun-11 01:26N 50°42' W 001°59'0 0.0
2018-Jun-11 00:59N 50°42' W 001°59'0 0.0
2018-Jun-11 00:26N 50°42' W 001°59'0 0.0
2018-Jun-10 23:59N 50°42' W 001°59'0 0.0
2018-Jun-10 23:26N 50°42' W 001°59'0 0.0
2018-Jun-10 22:56N 50°42' W 001°59'0 0.0
2018-Jun-10 22:29N 50°42' W 001°59'0 0.0
2018-Jun-10 21:56N 50°42' W 001°59'0 0.0
2018-Jun-10 21:26N 50°42' W 001°59'0 0.0
2018-Jun-10 21:00N 50°42' W 001°59'1 3.0
2018-Jun-10 20:30N 50°42' W 001°57'510.7
2018-Jun-10 20:00N 50°37' W 001°54'3418.3
2018-Jun-10 18:11N 50°04' W 001°44'318.2
2018-Jun-10 18:00N 50°01' W 001°42'918.4
2018-Jun-10 17:30N 49°52' W 001°41'917.9
2018-Jun-10 17:01N 49°43' W 001°40'5 9.5
2018-Jun-10 16:30N 49°39' W 001°37'0 0.0
2018-Jun-10 16:00N 49°39' W 001°37'0 0.0
2018-Jun-10 15:30N 49°39' W 001°37'0 0.0
2018-Jun-10 15:00N 49°39' W 001°37'0 0.0
2018-Jun-10 14:30N 49°39' W 001°37'0 0.0
2018-Jun-10 13:30N 49°39' W 001°37'0 0.0
2018-Jun-10 13:00N 49°39' W 001°37'0 0.0
2018-Jun-10 12:30N 49°39' W 001°37'0 0.0
2018-Jun-10 12:00N 49°39' W 001°37'0 0.1
2018-Jun-10 11:30N 49°39' W 001°37'4 7.9
2018-Jun-10 11:00N 49°42' W 001°40'917.6
2018-Jun-10 10:30N 49°51' W 001°42'918.1
2018-Jun-10 10:01N 49°60' W 001°44'1018.2
2018-Jun-10 09:26N 50°10' W 001°48'818.5
2018-Jun-10 09:00N 50°18' W 001°50'918.7
2018-Jun-10 08:30N 50°27' W 001°53'918.9
2018-Jun-10 08:00N 50°36' W 001°54'612.2
2018-Jun-10 07:30N 50°42' W 001°57'1 2.4
2018-Jun-10 06:58N 50°42' W 001°59'0 0.0
2018-Jun-10 06:28N 50°42' W 001°59'0 0.0
2018-Jun-10 05:58N 50°42' W 001°59'0 0.0
2018-Jun-10 05:28N 50°42' W 001°59'0 0.0
2018-Jun-10 04:58N 50°42' W 001°59'0 0.0
2018-Jun-10 04:28N 50°42' W 001°59'0 0.0
2018-Jun-10 03:58N 50°42' W 001°59'0 0.0
2018-Jun-10 03:28N 50°42' W 001°59'0 0.0
2018-Jun-10 02:58N 50°42' W 001°59'0 0.0
2018-Jun-10 02:28N 50°42' W 001°59'0 0.0
2018-Jun-10 01:58N 50°42' W 001°59'  
Track history (hours):
 
Tides and Currents Weather Stations Pressure Air Temp Water Temp Dewpoint Dewpoint Depression Visibility Wind Speed Wind Dir Waves Ship Positions

Barfleur

Operator: Brittany Ferries

Last reported at 2018-Jun-20 01:52 UTC. Time now 2018-Jun-20 02:09 UTC.
Position N 49°55' W 001°37'.

Length 158 m; draft 5.2 m.

Type: Ship. MMSI: 227289000.

Date/timePositionNaut miles runAvg speedWind from/ knotsBaromVisibWave heightAir tempDewpointWater temp
2018-Jun-20 01:52N 49°55' W 001°37'613.2
2018-Jun-20 01:25N 49°50' W 001°33'4 6.7
2018-Jun-20 00:48N 49°46' W 001°31'60 4.0
2018-Jun-19 09:56N 50°42' W 001°59'1310.1
2018-Jun-19 08:36N 50°30' W 001°52'218.2
2018-Jun-19 08:31N 50°32' W 001°53'816.4
2018-Jun-19 08:00N 50°40' W 001°56'4 5.7
2018-Jun-19 07:21N 50°42' W 001°59'0 0.0
2018-Jun-19 06:57N 50°42' W 001°59'0 0.0
2018-Jun-19 06:21N 50°42' W 001°59'0 0.0
2018-Jun-19 05:51N 50°42' W 001°59'0 0.0
2018-Jun-19 05:28N 50°42' W 001°59'0 0.0
2018-Jun-19 04:57N 50°42' W 001°59'0 0.0
2018-Jun-19 04:28N 50°42' W 001°59'0 0.0
2018-Jun-19 03:58N 50°42' W 001°59'0 0.0
2018-Jun-19 03:27N 50°42' W 001°59'0 0.0
2018-Jun-19 02:57N 50°42' W 001°59'0 0.0
2018-Jun-19 02:27N 50°42' W 001°59'0 0.0
2018-Jun-19 01:57N 50°42' W 001°59'0 0.0
2018-Jun-19 01:28N 50°42' W 001°59'0 0.0
2018-Jun-19 00:57N 50°42' W 001°59'0 0.0
2018-Jun-19 00:28N 50°42' W 001°59'0 0.0
2018-Jun-18 23:57N 50°42' W 001°59'0 0.0
2018-Jun-18 23:29N 50°42' W 001°59'0 0.0
2018-Jun-18 22:59N 50°42' W 001°59'0 0.0
2018-Jun-18 22:28N 50°42' W 001°59'0 0.0
2018-Jun-18 21:57N 50°42' W 001°59'0 0.0
2018-Jun-18 21:30N 50°42' W 001°59'0 0.0
2018-Jun-18 20:56N 50°42' W 001°59'1 1.7
2018-Jun-18 20:30N 50°42' W 001°58'5 9.6
2018-Jun-18 20:01N 50°38' W 001°54'816.5
2018-Jun-18 19:30N 50°30' W 001°51'5018.2
2018-Jun-18 16:45N 49°41' W 001°40'1 0.1
2018-Jun-18 11:21N 49°40' W 001°39'3817.7
2018-Jun-18 09:12N 50°18' W 001°47'418.7
2018-Jun-18 08:58N 50°22' W 001°49'918.4
2018-Jun-18 08:30N 50°30' W 001°51'917.7
2018-Jun-18 08:00N 50°39' W 001°55'4 8.4
2018-Jun-18 07:30N 50°42' W 001°59'0 0.8
2018-Jun-18 07:00N 50°42' W 001°59'0 0.0
2018-Jun-18 06:17N 50°42' W 001°59'0 0.0
2018-Jun-18 05:59N 50°42' W 001°59'0 0.0
2018-Jun-18 05:29N 50°42' W 001°59'0 0.0
2018-Jun-18 04:59N 50°42' W 001°59'0 0.0
2018-Jun-18 04:29N 50°42' W 001°59'0 0.0
2018-Jun-18 03:59N 50°42' W 001°59'0 0.0
2018-Jun-18 03:29N 50°42' W 001°59'0 0.0
2018-Jun-18 02:59N 50°42' W 001°59'0 0.0
2018-Jun-18 02:23N 50°42' W 001°59'0 0.0
2018-Jun-18 01:59N 50°42' W 001°59'0 0.0
2018-Jun-18 01:29N 50°42' W 001°59'0 0.0
2018-Jun-18 00:59N 50°42' W 001°59'0 0.0
2018-Jun-18 00:29N 50°42' W 001°59'0 0.0
2018-Jun-17 23:59N 50°42' W 001°59'0 0.0
2018-Jun-17 23:23N 50°42' W 001°59'0 0.0
2018-Jun-17 22:53N 50°42' W 001°59'0 0.0
2018-Jun-17 22:23N 50°42' W 001°59'0 0.0
2018-Jun-17 21:59N 50°42' W 001°59'0 0.0
2018-Jun-17 21:29N 50°42' W 001°59'0 0.0
2018-Jun-17 20:50N 50°42' W 001°59'0 0.9
2018-Jun-17 20:30N 50°42' W 001°59'510.7
2018-Jun-17 20:00N 50°38' W 001°54'815.7
2018-Jun-17 19:30N 50°31' W 001°51'4018.7
2018-Jun-17 17:21N 49°51' W 001°42'1017.5
2018-Jun-17 16:45N 49°41' W 001°39'0 0.0
2018-Jun-17 11:13N 49°40' W 001°39'4817.6
2018-Jun-17 08:28N 50°28' W 001°51'817.8
2018-Jun-17 08:00N 50°36' W 001°53'611.4
2018-Jun-17 07:30N 50°42' W 001°57'2 3.4
2018-Jun-17 07:00N 50°42' W 001°59'0 0.0
2018-Jun-17 06:30N 50°42' W 001°59'0 0.0
2018-Jun-17 05:59N 50°42' W 001°59'0 0.0
2018-Jun-17 05:30N 50°42' W 001°59'0 0.0
2018-Jun-17 04:59N 50°42' W 001°59'0 0.0
2018-Jun-17 04:23N 50°42' W 001°59'0 0.0
2018-Jun-17 03:59N 50°42' W 001°59'0 0.0
2018-Jun-17 03:29N 50°42' W 001°59'0 0.0
2018-Jun-17 02:59N 50°42' W 001°59'0 0.0
2018-Jun-17 02:30N 50°42' W 001°59'0 0.0
2018-Jun-17 01:59N 50°42' W 001°59'0 0.0
2018-Jun-17 01:29N 50°42' W 001°59'0 0.0
2018-Jun-17 01:00N 50°42' W 001°59'0 0.0
2018-Jun-17 00:29N 50°42' W 001°59'0 0.0
2018-Jun-16 23:59N 50°42' W 001°59'0 0.0
2018-Jun-16 23:29N 50°42' W 001°59'0 0.0
2018-Jun-16 22:59N 50°42' W 001°59'0 0.0
2018-Jun-16 22:30N 50°42' W 001°59'0 0.0
2018-Jun-16 22:00N 50°42' W 001°59'0 0.0
2018-Jun-16 21:29N 50°42' W 001°59'0 0.0
2018-Jun-16 21:00N 50°42' W 001°59'0 0.4
2018-Jun-16 20:30N 50°42' W 001°59'5 9.4
2018-Jun-16 20:00N 50°39' W 001°55'1017.6
2018-Jun-16 19:26N 50°29' W 001°50'4918.5
2018-Jun-16 16:49N 49°41' W 001°40'49 5.9
2018-Jun-16 08:30N 50°29' W 001°51'917.4
2018-Jun-16 08:00N 50°38' W 001°53'510.0
2018-Jun-16 07:30N 50°42' W 001°58'1 2.2
2018-Jun-16 07:00N 50°42' W 001°59'0 0.0
2018-Jun-16 06:30N 50°42' W 001°59'0 0.0
2018-Jun-16 05:57N 50°42' W 001°59'0 0.0
2018-Jun-16 05:27N 50°42' W 001°59'0 0.0
2018-Jun-16 04:57N 50°42' W 001°59'0 0.0
2018-Jun-16 04:27N 50°42' W 001°59'0 0.0
2018-Jun-16 03:57N 50°42' W 001°59'0 0.0
2018-Jun-16 03:26N 50°42' W 001°59'0 0.0
2018-Jun-16 02:57N 50°42' W 001°59'0 0.0
2018-Jun-16 02:27N 50°42' W 001°59'0 0.0
2018-Jun-16 01:57N 50°42' W 001°59'0 0.0
2018-Jun-16 01:27N 50°42' W 001°59'0 0.0
2018-Jun-16 00:51N 50°42' W 001°59'0 0.0
2018-Jun-16 00:27N 50°42' W 001°59'0 0.0
2018-Jun-15 23:57N 50°42' W 001°59'0 0.0
2018-Jun-15 23:27N 50°42' W 001°59'0 0.0
2018-Jun-15 22:57N 50°42' W 001°59'0 0.0
2018-Jun-15 22:27N 50°42' W 001°59'0 0.0
2018-Jun-15 21:57N 50°42' W 001°59'0 0.0
2018-Jun-15 21:30N 50°42' W 001°59'0 0.0
2018-Jun-15 20:48N 50°42' W 001°59'0 0.2
2018-Jun-15 20:31N 50°42' W 001°60'5 9.0
2018-Jun-15 20:00N 50°39' W 001°55'917.0
2018-Jun-15 19:30N 50°31' W 001°51'918.4
2018-Jun-15 19:00N 50°22' W 001°49'918.5
2018-Jun-15 18:30N 50°13' W 001°46'918.7
2018-Jun-15 18:00N 50°03' W 001°44'1018.6
2018-Jun-15 17:27N 49°53' W 001°42'918.5
2018-Jun-15 16:57N 49°44' W 001°40'5 2.6
2018-Jun-15 15:01N 49°40' W 001°37'2 5.7
2018-Jun-15 14:44N 49°40' W 001°39'3 8.9
2018-Jun-15 14:27N 49°42' W 001°41'1 3.1
2018-Jun-15 14:00N 49°43' W 001°39'3 1.3
2018-Jun-15 11:25N 49°40' W 001°37'513.1
2018-Jun-15 11:00N 49°45' W 001°40'918.9
2018-Jun-15 10:30N 49°54' W 001°42'1318.0
2018-Jun-15 09:48N 50°07' W 001°43'2318.6
2018-Jun-15 08:34N 50°29' W 001°50'118.5
2018-Jun-15 08:30N 50°30' W 001°50'917.5
2018-Jun-15 08:00N 50°39' W 001°55'4 8.8
2018-Jun-15 07:30N 50°42' W 001°58'1 1.1
2018-Jun-15 06:53N 50°42' W 001°59'0 0.0
2018-Jun-15 06:23N 50°42' W 001°59'0 0.0
2018-Jun-15 05:59N 50°42' W 001°59'0 0.0
2018-Jun-15 05:29N 50°42' W 001°59'0 0.0
2018-Jun-15 04:59N 50°42' W 001°59'0 0.0
2018-Jun-15 04:29N 50°42' W 001°59'0 0.0
2018-Jun-15 03:59N 50°42' W 001°59'0 0.0
2018-Jun-15 03:29N 50°42' W 001°59'0 0.0
2018-Jun-15 02:59N 50°42' W 001°59'0 0.0
2018-Jun-15 02:29N 50°42' W 001°59'0 0.0
2018-Jun-15 01:59N 50°42' W 001°59'0 0.0
2018-Jun-15 01:29N 50°42' W 001°59'0 0.0
2018-Jun-15 00:59N 50°42' W 001°59'0 0.0
2018-Jun-15 00:29N 50°42' W 001°59'0 0.0
2018-Jun-14 23:59N 50°42' W 001°59'0 0.0
2018-Jun-14 23:29N 50°42' W 001°59'0 0.0
2018-Jun-14 22:59N 50°42' W 001°59'0 0.0
2018-Jun-14 22:23N 50°42' W 001°59'0 0.0
2018-Jun-14 21:59N 50°42' W 001°59'0 0.0
2018-Jun-14 21:19N 50°42' W 001°59'0 0.1
2018-Jun-14 21:00N 50°42' W 001°60'4 8.0
2018-Jun-14 20:31N 50°39' W 001°55'814.8
2018-Jun-14 20:00N 50°32' W 001°51'816.8
2018-Jun-14 19:30N 50°25' W 001°46'917.3
2018-Jun-14 19:00N 50°16' W 001°43'918.3
2018-Jun-14 18:30N 50°07' W 001°43'918.5
2018-Jun-14 18:00N 49°58' W 001°43'19 4.7
2018-Jun-14 13:50N 49°39' W 001°37'0 0.0
2018-Jun-14 13:30N 49°39' W 001°37'0 0.0
2018-Jun-14 13:01N 49°39' W 001°37'0 0.0
2018-Jun-14 12:31N 49°39' W 001°37'0 0.0
2018-Jun-14 12:01N 49°39' W 001°37'4 7.5
2018-Jun-14 11:30N 49°42' W 001°41'816.0
2018-Jun-14 11:00N 49°50' W 001°43'918.0
2018-Jun-14 10:30N 49°59' W 001°43'918.2
2018-Jun-14 10:00N 50°07' W 001°46'2117.6
2018-Jun-14 08:51N 50°28' W 001°51'617.3
2018-Jun-14 08:30N 50°33' W 001°53'713.7
2018-Jun-14 08:00N 50°40' W 001°56'3 6.4
2018-Jun-14 07:29N 50°42' W 001°59'0 0.0
2018-Jun-14 06:59N 50°42' W 001°59'0 0.0
2018-Jun-14 06:29N 50°42' W 001°59'0 0.0
2018-Jun-14 06:00N 50°42' W 001°59'1 1.6
2018-Jun-14 05:30N 50°42' W 001°58'5 9.6
2018-Jun-14 05:00N 50°38' W 001°54'714.7
2018-Jun-14 04:31N 50°31' W 001°51'714.9
2018-Jun-14 04:01N 50°24' W 001°49'714.8
2018-Jun-14 03:30N 50°16' W 001°49'714.6
2018-Jun-14 03:00N 50°09' W 001°48'714.3
2018-Jun-14 02:30N 50°02' W 001°47'714.4
2018-Jun-14 02:00N 49°55' W 001°46'714.6
2018-Jun-14 01:31N 49°48' W 001°45'3 5.7
2018-Jun-14 01:00N 49°45' W 001°43'2 3.5
2018-Jun-14 00:30N 49°44' W 001°40'1 2.7
2018-Jun-14 00:00N 49°44' W 001°38'1 1.8
2018-Jun-13 23:30N 49°44' W 001°37'1 1.3
2018-Jun-13 23:00N 49°44' W 001°36'0 0.5
2018-Jun-13 22:30N 49°44' W 001°35'0 0.3
2018-Jun-13 22:00N 49°44' W 001°36'0 0.4
2018-Jun-13 21:30N 49°44' W 001°36'2 4.2
2018-Jun-13 21:00N 49°42' W 001°35'3 6.1
2018-Jun-13 20:30N 49°39' W 001°37'0 0.0
2018-Jun-13 20:00N 49°39' W 001°37'0 0.0
2018-Jun-13 19:30N 49°39' W 001°37'0 0.0
2018-Jun-13 19:00N 49°39' W 001°37'0 0.0
2018-Jun-13 18:30N 49°39' W 001°37'0 0.0
2018-Jun-13 17:34N 49°39' W 001°37'0 0.0
2018-Jun-13 17:29N 49°39' W 001°37'0 0.0
2018-Jun-13 17:00N 49°39' W 001°37'0 0.0
2018-Jun-13 16:30N 49°39' W 001°37'0 0.0
2018-Jun-13 16:00N 49°39' W 001°37'0 0.0
2018-Jun-13 15:31N 49°39' W 001°37'0 0.2
2018-Jun-13 15:00N 49°39' W 001°37'4 7.9
2018-Jun-13 14:30N 49°42' W 001°39'1 2.5
2018-Jun-13 14:00N 49°43' W 001°38'3 6.8
2018-Jun-13 13:30N 49°40' W 001°38'1 1.3
2018-Jun-13 12:20N 49°39' W 001°37'0 0.0
2018-Jun-13 12:00N 49°39' W 001°37'1 2.0
2018-Jun-13 11:30N 49°40' W 001°37'713.6
2018-Jun-13 11:01N 49°46' W 001°42'918.6
2018-Jun-13 10:30N 49°55' W 001°45'918.8
2018-Jun-13 10:00N 50°04' W 001°46'918.9
2018-Jun-13 09:31N 50°14' W 001°48'1018.9
2018-Jun-13 09:00N 50°23' W 001°50'918.5
2018-Jun-13 08:30N 50°32' W 001°52'815.8
2018-Jun-13 08:00N 50°40' W 001°56'4 7.2
2018-Jun-13 07:30N 50°42' W 001°59'0 0.0
2018-Jun-13 07:00N 50°42' W 001°59'0 0.0
2018-Jun-13 06:30N 50°42' W 001°59'0 0.0
2018-Jun-13 05:59N 50°42' W 001°59'1 2.7
2018-Jun-13 05:30N 50°42' W 001°58'5 9.8
2018-Jun-13 05:00N 50°38' W 001°54'815.4
2018-Jun-13 04:30N 50°30' W 001°50'2014.6
2018-Jun-13 03:09N 50°11' W 001°45'214.4
2018-Jun-13 03:00N 50°09' W 001°44'714.2
2018-Jun-13 02:30N 50°02' W 001°43'714.3
2018-Jun-13 02:01N 49°55' W 001°42'714.4
2018-Jun-13 01:30N 49°48' W 001°40'4 7.9
2018-Jun-13 01:00N 49°44' W 001°40'3 6.4
2018-Jun-13 00:30N 49°44' W 001°45'1 1.3
2018-Jun-13 00:00N 49°43' W 001°46'2 3.5
2018-Jun-12 23:30N 49°43' W 001°43'1 3.0
2018-Jun-12 23:00N 49°43' W 001°41'1 2.6
2018-Jun-12 22:30N 49°43' W 001°39'1 2.0
2018-Jun-12 22:00N 49°43' W 001°37'1 1.2
2018-Jun-12 21:30N 49°43' W 001°37'1 1.0
2018-Jun-12 21:00N 49°44' W 001°36'4 7.1
2018-Jun-12 20:30N 49°40' W 001°36'1 2.7
2018-Jun-12 19:59N 49°39' W 001°37'0 0.0
2018-Jun-12 19:29N 49°39' W 001°37'0 0.0
2018-Jun-12 18:59N 49°39' W 001°37'0 0.0
2018-Jun-12 18:29N 49°39' W 001°37'0 0.0
2018-Jun-12 17:59N 49°39' W 001°37'0 0.0
2018-Jun-12 17:29N 49°39' W 001°37'0 0.0
2018-Jun-12 16:59N 49°39' W 001°37'0 0.0
2018-Jun-12 16:29N 49°39' W 001°37'0 0.0
2018-Jun-12 15:59N 49°39' W 001°37'0 0.0
2018-Jun-12 15:29N 49°39' W 001°37'0 0.0
2018-Jun-12 14:59N 49°39' W 001°37'0 0.0
2018-Jun-12 14:29N 49°39' W 001°37'0 0.0
2018-Jun-12 13:59N 49°39' W 001°37'0 0.0
2018-Jun-12 13:29N 49°39' W 001°37'0 0.0
2018-Jun-12 12:59N 49°39' W 001°37'0 0.0
2018-Jun-12 12:29N 49°39' W 001°37'0 0.0
2018-Jun-12 12:00N 49°39' W 001°37'2 3.8
2018-Jun-12 11:31N 49°40' W 001°39'714.3
2018-Jun-12 11:00N 49°47' W 001°43'918.3
2018-Jun-12 10:31N 49°56' W 001°44'918.7
2018-Jun-12 10:00N 50°05' W 001°46'918.8
2018-Jun-12 09:30N 50°15' W 001°48'918.9
2018-Jun-12 09:00N 50°24' W 001°50'918.7
2018-Jun-12 08:30N 50°33' W 001°53'815.3
2018-Jun-12 07:59N 50°41' W 001°56'3 4.7
2018-Jun-12 07:25N 50°42' W 001°59'0 0.0
2018-Jun-12 06:58N 50°42' W 001°59'0 0.0
2018-Jun-12 06:28N 50°42' W 001°59'0 0.0
2018-Jun-12 05:55N 50°42' W 001°59'0 0.0
2018-Jun-12 05:25N 50°42' W 001°59'0 0.0
2018-Jun-12 04:55N 50°42' W 001°59'0 0.0
2018-Jun-12 04:25N 50°42' W 001°59'0 0.0
2018-Jun-12 03:58N 50°42' W 001°59'0 0.0
2018-Jun-12 03:28N 50°42' W 001°59'0 0.0
2018-Jun-12 02:55N 50°42' W 001°59'0 0.0
2018-Jun-12 02:25N 50°42' W 001°59'0 0.0
2018-Jun-12 01:55N 50°42' W 001°59'0 0.0
2018-Jun-12 01:25N 50°42' W 001°59'0 0.0
2018-Jun-12 00:58N 50°42' W 001°59'0 0.0
2018-Jun-12 00:28N 50°42' W 001°59'0 0.0
2018-Jun-11 23:55N 50°42' W 001°59'0 0.0
2018-Jun-11 23:25N 50°42' W 001°59'0 0.0
2018-Jun-11 22:55N 50°42' W 001°59'0 0.0
2018-Jun-11 22:25N 50°42' W 001°59'0 0.0
2018-Jun-11 21:58N 50°42' W 001°59'0 0.0
2018-Jun-11 21:28N 50°42' W 001°59'0 0.0
2018-Jun-11 20:58N 50°42' W 001°59'0 0.1
2018-Jun-11 20:30N 50°42' W 001°59'4 8.6
2018-Jun-11 20:00N 50°39' W 001°55'816.4
2018-Jun-11 19:30N 50°31' W 001°52'1318.5
2018-Jun-11 18:48N 50°18' W 001°51'518.1
2018-Jun-11 18:30N 50°13' W 001°50'917.8
2018-Jun-11 18:00N 50°04' W 001°46'918.0
2018-Jun-11 17:30N 49°55' W 001°43'917.7
2018-Jun-11 17:01N 49°47' W 001°41'714.2
2018-Jun-11 16:30N 49°40' W 001°37'1 2.1
2018-Jun-11 16:00N 49°39' W 001°37'0 0.0
2018-Jun-11 15:30N 49°39' W 001°37'0 0.0
2018-Jun-11 15:00N 49°39' W 001°37'0 0.0
2018-Jun-11 14:30N 49°39' W 001°37'0 0.0
2018-Jun-11 14:00N 49°39' W 001°37'0 0.0
2018-Jun-11 13:30N 49°39' W 001°37'0 0.0
2018-Jun-11 13:00N 49°39' W 001°37'0 0.0
2018-Jun-11 12:30N 49°39' W 001°37'0 0.0
2018-Jun-11 12:00N 49°39' W 001°37'0 0.4
2018-Jun-11 11:31N 49°39' W 001°37'510.7
2018-Jun-11 11:00N 49°44' W 001°41'917.1
2018-Jun-11 10:30N 49°52' W 001°43'917.6
2018-Jun-11 10:00N 50°01' W 001°46'918.9
2018-Jun-11 09:31N 50°10' W 001°47'1019.0
2018-Jun-11 09:00N 50°19' W 001°49'919.0
2018-Jun-11 08:31N 50°29' W 001°51'918.7
2018-Jun-11 08:00N 50°38' W 001°54'510.4
2018-Jun-11 07:30N 50°42' W 001°59'1 1.0
2018-Jun-11 06:59N 50°42' W 001°59'0 0.0
2018-Jun-11 06:26N 50°42' W 001°59'0 0.0
2018-Jun-11 05:59N 50°42' W 001°59'0 0.0
2018-Jun-11 05:29N 50°42' W 001°59'0 0.0
2018-Jun-11 04:59N 50°42' W 001°59'0 0.0
2018-Jun-11 04:29N 50°42' W 001°59'0 0.0
2018-Jun-11 03:59N 50°42' W 001°59'0 0.0
2018-Jun-11 03:29N 50°42' W 001°59'0 0.0
2018-Jun-11 02:53N 50°42' W 001°59'0 0.0
2018-Jun-11 02:29N 50°42' W 001°59'0 0.0
2018-Jun-11 01:59N 50°42' W 001°59'0 0.0
2018-Jun-11 01:26N 50°42' W 001°59'0 0.0
2018-Jun-11 00:59N 50°42' W 001°59'0 0.0
2018-Jun-11 00:26N 50°42' W 001°59'0 0.0
2018-Jun-10 23:59N 50°42' W 001°59'0 0.0
2018-Jun-10 23:26N 50°42' W 001°59'0 0.0
2018-Jun-10 22:56N 50°42' W 001°59'0 0.0
2018-Jun-10 22:29N 50°42' W 001°59'0 0.0
2018-Jun-10 21:56N 50°42' W 001°59'0 0.0
2018-Jun-10 21:26N 50°42' W 001°59'0 0.0
2018-Jun-10 21:00N 50°42' W 001°59'1 3.0
2018-Jun-10 20:30N 50°42' W 001°57'510.7
2018-Jun-10 20:00N 50°37' W 001°54'3418.3
2018-Jun-10 18:11N 50°04' W 001°44'318.2
2018-Jun-10 18:00N 50°01' W 001°42'918.4
2018-Jun-10 17:30N 49°52' W 001°41'917.9
2018-Jun-10 17:01N 49°43' W 001°40'5 9.5
2018-Jun-10 16:30N 49°39' W 001°37'0 0.0
2018-Jun-10 16:00N 49°39' W 001°37'0 0.0
2018-Jun-10 15:30N 49°39' W 001°37'0 0.0
2018-Jun-10 15:00N 49°39' W 001°37'0 0.0
2018-Jun-10 14:30N 49°39' W 001°37'0 0.0
2018-Jun-10 13:30N 49°39' W 001°37'0 0.0
2018-Jun-10 13:00N 49°39' W 001°37'0 0.0
2018-Jun-10 12:30N 49°39' W 001°37'0 0.0
2018-Jun-10 12:00N 49°39' W 001°37'0 0.1
2018-Jun-10 11:30N 49°39' W 001°37'4 7.9
2018-Jun-10 11:00N 49°42' W 001°40'917.6
2018-Jun-10 10:30N 49°51' W 001°42'918.1
2018-Jun-10 10:01N 49°60' W 001°44'1018.2
2018-Jun-10 09:26N 50°10' W 001°48'818.5
2018-Jun-10 09:00N 50°18' W 001°50'918.7
2018-Jun-10 08:30N 50°27' W 001°53'918.9
2018-Jun-10 08:00N 50°36' W 001°54'612.2
2018-Jun-10 07:30N 50°42' W 001°57'1 2.4
2018-Jun-10 06:58N 50°42' W 001°59'0 0.0
2018-Jun-10 06:28N 50°42' W 001°59'0 0.0
2018-Jun-10 05:58N 50°42' W 001°59'0 0.0
2018-Jun-10 05:28N 50°42' W 001°59'0 0.0
2018-Jun-10 04:58N 50°42' W 001°59'0 0.0
2018-Jun-10 04:28N 50°42' W 001°59'0 0.0
2018-Jun-10 03:58N 50°42' W 001°59'0 0.0
2018-Jun-10 03:28N 50°42' W 001°59'0 0.0
2018-Jun-10 02:58N 50°42' W 001°59'0 0.0
2018-Jun-10 02:28N 50°42' W 001°59'0 0.0
2018-Jun-10 01:58N 50°42' W 001°59'  

Dump ship's entire track history